Winslow Lindbergh Regional Airport
KINW : now visible

Airfield :











YOU CAN JOIN US ON...

 
LOGIN :

Register | Disclaimer

   EN    FR    IT 

 









Legend :    VFR   Marginal VFR   IFR   Intensive IFR   Very Intensive IFR
Visi :
Ceiling :
>= 8 km
>= 3000ft
5 to 8 km
1000 to 3000 ft
1500m to 5 km
500 to 1000 ft
800 to 1500m
200 to 500 ft
< 800m
< 200 ft
Symbols :   Thunderstorms  Fog  Heavy snow  Heavy precipitations  Wind > 20 kt







- Airport Elevation : 4941 ft


KINW - Winslow Lindbergh Regional

CURRENT METAR :
  • 210456Z AUTO 22008KT 10SM CLR 14/M06 A3004 RMK AO2 SLP112 T01441061

EXPIRED METARs :
  • 210356Z AUTO 21008KT 10SM CLR 17/M06 A3003 RMK AO2 SLP107 T01721056
  • 210256Z AUTO 24010KT 10SM CLR 18/M06 A3001 RMK AO2 SLP107 T01831061 53015

TAF KINW
Valid from the 21 at 00:00 until the 22 at 00:00 UTC


202320Z 2100/2124 22020G26KT P6SM SKC
FM210200 22009KT P6SM SKC
FM211700 23013G19KT P6SM SKC
No reported NOTAMs for that airfield.



MET'MAP, your aeronautical weather chart ! - Copyright ORBIFLY December 2007 - Disclaimer

ORBIFLY MET'MAP TEAM :

Programming & Development : Alexandra Zaïnal
Concept & Development : Baudouin d'Aumeries
Co-Development & Prog : Marc-Olivier Méhu
Technical & hardware support : Manuel Goepfert

Contact : metmap@orbifly.com




SOURCES & CREDITS :

   NOAA       Earth
Advisory